sensor_id;sensor_type;location;lat;lon;timestamp;pressure;altitude;pressure_sealevel;temperature;humidity
73063;BME280;61230;46.328;19.972;2023-06-22T00:00:26;100806.19;;;22.25;98.45
73063;BME280;61230;46.328;19.972;2023-06-22T00:02:54;100805.38;;;22.25;98.01
73063;BME280;61230;46.328;19.972;2023-06-22T00:05:22;100798.56;;;22.22;98.23
73063;BME280;61230;46.328;19.972;2023-06-22T00:07:50;100738.13;;;21.81;98.36
73063;BME280;61230;46.328;19.972;2023-06-22T00:10:18;100796.72;;;22.16;98.61
73063;BME280;61230;46.328;19.972;2023-06-22T00:12:45;100789.28;;;22.12;98.78
73063;BME280;61230;46.328;19.972;2023-06-22T00:15:13;100786.41;;;22.07;98.38
73063;BME280;61230;46.328;19.972;2023-06-22T00:17:40;100797.34;;;21.99;98.46
73063;BME280;61230;46.328;19.972;2023-06-22T00:20:08;100791.12;;;21.92;98.34
73063;BME280;61230;46.328;19.972;2023-06-22T00:22:37;100791.97;;;21.92;98.40
73063;BME280;61230;46.328;19.972;2023-06-22T00:25:07;100791.75;;;21.87;98.48
73063;BME280;61230;46.328;19.972;2023-06-22T00:27:35;100741.41;;;21.63;98.58
73063;BME280;61230;46.328;19.972;2023-06-22T00:30:05;100770.09;;;21.82;99.29
73063;BME280;61230;46.328;19.972;2023-06-22T00:32:33;100772.97;;;21.81;100.00
73063;BME280;61230;46.328;19.972;2023-06-22T00:35:01;100763.69;;;21.76;100.00
73063;BME280;61230;46.328;19.972;2023-06-22T00:37:29;100763.06;;;21.74;100.00
73063;BME280;61230;46.328;19.972;2023-06-22T00:39:58;100757.06;;;21.66;100.00
73063;BME280;61230;46.328;19.972;2023-06-22T00:42:26;100752.75;;;21.58;100.00
73063;BME280;61230;46.328;19.972;2023-06-22T00:44:53;100756.66;;;21.56;100.00
73063;BME280;61230;46.328;19.972;2023-06-22T00:47:23;100741.00;;;21.53;100.00
73063;BME280;61230;46.328;19.972;2023-06-22T00:49:51;100691.75;;;21.28;100.00
73063;BME280;61230;46.328;19.972;2023-06-22T00:52:21;100735.44;;;21.48;100.00
73063;BME280;61230;46.328;19.972;2023-06-22T00:54:56;100731.50;;;21.44;100.00
73063;BME280;61230;46.328;19.972;2023-06-22T00:57:24;100687.56;;;21.12;100.00
73063;BME280;61230;46.328;19.972;2023-06-22T00:59:56;100733.53;;;21.35;100.00
73063;BME280;61230;46.328;19.972;2023-06-22T01:02:23;100739.72;;;21.36;100.00
73063;BME280;61230;46.328;19.972;2023-06-22T01:04:51;100733.13;;;21.32;100.00
73063;BME280;61230;46.328;19.972;2023-06-22T01:10:34;100735.59;;;21.33;100.00
73063;BME280;61230;46.328;19.972;2023-06-22T01:13:07;100741.56;;;21.29;100.00
73063;BME280;61230;46.328;19.972;2023-06-22T01:15:44;100728.16;;;21.29;100.00
73063;BME280;61230;46.328;19.972;2023-06-22T01:18:14;100734.56;;;21.28;100.00
73063;BME280;61230;46.328;19.972;2023-06-22T01:20:43;100738.47;;;21.25;100.00
73063;BME280;61230;46.328;19.972;2023-06-22T01:23:27;100701.50;;;20.94;100.00
73063;BME280;61230;46.328;19.972;2023-06-22T01:28:57;100744.19;;;21.15;100.00
73063;BME280;61230;46.328;19.972;2023-06-22T01:31:28;100749.56;;;21.15;100.00
73063;BME280;61230;46.328;19.972;2023-06-22T01:34:00;100753.06;;;21.16;100.00
73063;BME280;61230;46.328;19.972;2023-06-22T01:36:30;100749.94;;;21.12;100.00
73063;BME280;61230;46.328;19.972;2023-06-22T01:38:58;100743.16;;;21.10;100.00
73063;BME280;61230;46.328;19.972;2023-06-22T01:41:27;100700.03;;;20.85;100.00
73063;BME280;61230;46.328;19.972;2023-06-22T01:43:57;100684.16;;;20.84;100.00
73063;BME280;61230;46.328;19.972;2023-06-22T01:46:25;100730.38;;;21.05;100.00
73063;BME280;61230;46.328;19.972;2023-06-22T01:48:53;100723.12;;;21.06;100.00
73063;BME280;61230;46.328;19.972;2023-06-22T01:51:22;100725.81;;;21.06;100.00
73063;BME280;61230;46.328;19.972;2023-06-22T01:53:49;100743.53;;;21.07;100.00
73063;BME280;61230;46.328;19.972;2023-06-22T01:56:18;100744.75;;;21.04;100.00
73063;BME280;61230;46.328;19.972;2023-06-22T01:58:59;100733.62;;;21.01;100.00
73063;BME280;61230;46.328;19.972;2023-06-22T02:01:42;100725.16;;;20.97;100.00
73063;BME280;61230;46.328;19.972;2023-06-22T02:04:21;100678.97;;;20.69;100.00
73063;BME280;61230;46.328;19.972;2023-06-22T02:06:55;100728.03;;;20.89;100.00
73063;BME280;61230;46.328;19.972;2023-06-22T02:09:25;100729.06;;;20.88;100.00
73063;BME280;61230;46.328;19.972;2023-06-22T02:11:56;100726.34;;;20.82;100.00
73063;BME280;61230;46.328;19.972;2023-06-22T02:14:26;100729.84;;;20.82;100.00
73063;BME280;61230;46.328;19.972;2023-06-22T02:16:54;100740.75;;;20.81;100.00
73063;BME280;61230;46.328;19.972;2023-06-22T02:19:23;100747.97;;;20.80;100.00
73063;BME280;61230;46.328;19.972;2023-06-22T02:21:52;100740.91;;;20.73;100.00
73063;BME280;61230;46.328;19.972;2023-06-22T02:24:20;100756.00;;;20.80;100.00
73063;BME280;61230;46.328;19.972;2023-06-22T02:26:50;100763.19;;;20.80;100.00
73063;BME280;61230;46.328;19.972;2023-06-22T02:29:18;100693.19;;;20.35;100.00
73063;BME280;61230;46.328;19.972;2023-06-22T02:31:45;100758.22;;;20.77;100.00
73063;BME280;61230;46.328;19.972;2023-06-22T02:34:14;100757.00;;;20.79;100.00
73063;BME280;61230;46.328;19.972;2023-06-22T02:36:46;100752.66;;;20.78;100.00
73063;BME280;61230;46.328;19.972;2023-06-22T02:39:23;100755.34;;;20.78;100.00
73063;BME280;61230;46.328;19.972;2023-06-22T02:41:52;100747.53;;;20.77;100.00
73063;BME280;61230;46.328;19.972;2023-06-22T02:44:22;100743.00;;;20.77;100.00
73063;BME280;61230;46.328;19.972;2023-06-22T02:46:49;100738.06;;;20.74;100.00
73063;BME280;61230;46.328;19.972;2023-06-22T02:49:17;100739.25;;;20.65;100.00
73063;BME280;61230;46.328;19.972;2023-06-22T02:51:47;100757.56;;;20.68;100.00
73063;BME280;61230;46.328;19.972;2023-06-22T02:54:15;100752.22;;;20.68;100.00
73063;BME280;61230;46.328;19.972;2023-06-22T02:56:44;100752.22;;;20.68;100.00
73063;BME280;61230;46.328;19.972;2023-06-22T02:59:12;100752.41;;;20.67;100.00
73063;BME280;61230;46.328;19.972;2023-06-22T03:01:40;100758.56;;;20.67;100.00
73063;BME280;61230;46.328;19.972;2023-06-22T03:04:09;100752.41;;;20.67;100.00
73063;BME280;61230;46.328;19.972;2023-06-22T03:06:37;100746.03;;;20.68;100.00
73063;BME280;61230;46.328;19.972;2023-06-22T03:09:06;100761.06;;;20.69;100.00
73063;BME280;61230;46.328;19.972;2023-06-22T03:11:34;100764.53;;;20.69;100.00
73063;BME280;61230;46.328;19.972;2023-06-22T03:14:02;100719.78;;;20.43;100.00
73063;BME280;61230;46.328;19.972;2023-06-22T03:16:30;100761.25;;;20.67;100.00
73063;BME280;61230;46.328;19.972;2023-06-22T03:18:59;100762.91;;;20.68;100.00
73063;BME280;61230;46.328;19.972;2023-06-22T03:21:28;100762.91;;;20.68;100.00
73063;BME280;61230;46.328;19.972;2023-06-22T03:23:56;100701.37;;;20.27;100.00
73063;BME280;61230;46.328;19.972;2023-06-22T03:26:23;100767.00;;;20.64;100.00
73063;BME280;61230;46.328;19.972;2023-06-22T03:28:54;100781.06;;;20.79;100.00
73063;BME280;61230;46.328;19.972;2023-06-22T03:31:22;100775.91;;;20.78;100.00
73063;BME280;61230;46.328;19.972;2023-06-22T03:33:50;100781.50;;;20.83;100.00
73063;BME280;61230;46.328;19.972;2023-06-22T03:36:18;100769.97;;;20.82;100.00
73063;BME280;61230;46.328;19.972;2023-06-22T03:38:47;100775.78;;;20.86;100.00
73063;BME280;61230;46.328;19.972;2023-06-22T03:41:15;100786.25;;;20.87;100.00
73063;BME280;61230;46.328;19.972;2023-06-22T03:43:43;100789.97;;;20.93;100.00
73063;BME280;61230;46.328;19.972;2023-06-22T03:46:11;100787.31;;;20.93;100.00
73063;BME280;61230;46.328;19.972;2023-06-22T03:48:38;100798.88;;;21.00;100.00
73063;BME280;61230;46.328;19.972;2023-06-22T03:51:06;100795.59;;;21.04;100.00
73063;BME280;61230;46.328;19.972;2023-06-22T03:53:34;100787.00;;;21.09;100.00
73063;BME280;61230;46.328;19.972;2023-06-22T03:56:01;100784.75;;;21.12;100.00
73063;BME280;61230;46.328;19.972;2023-06-22T03:58:29;100794.03;;;21.16;100.00
73063;BME280;61230;46.328;19.972;2023-06-22T04:01:00;100795.28;;;21.14;100.00
73063;BME280;61230;46.328;19.972;2023-06-22T04:03:28;100807.22;;;21.18;100.00
73063;BME280;61230;46.328;19.972;2023-06-22T04:05:55;100805.59;;;21.24;100.00
73063;BME280;61230;46.328;19.972;2023-06-22T04:08:23;100803.94;;;21.29;100.00
73063;BME280;61230;46.328;19.972;2023-06-22T04:10:51;100814.28;;;21.39;100.00
73063;BME280;61230;46.328;19.972;2023-06-22T04:13:18;100807.72;;;21.41;100.00
73063;BME280;61230;46.328;19.972;2023-06-22T04:15:46;100805.25;;;21.46;100.00
73063;BME280;61230;46.328;19.972;2023-06-22T04:18:14;100808.12;;;21.51;100.00
73063;BME280;61230;46.328;19.972;2023-06-22T04:20:41;100809.22;;;21.57;100.00
73063;BME280;61230;46.328;19.972;2023-06-22T04:23:09;100816.84;;;21.66;100.00
73063;BME280;61230;46.328;19.972;2023-06-22T04:25:36;100821.78;;;21.69;100.00
73063;BME280;61230;46.328;19.972;2023-06-22T04:28:04;100825.28;;;21.70;100.00
73063;BME280;61230;46.328;19.972;2023-06-22T04:30:32;100809.84;;;21.78;100.00
73063;BME280;61230;46.328;19.972;2023-06-22T04:33:01;100821.41;;;21.86;100.00
73063;BME280;61230;46.328;19.972;2023-06-22T04:35:28;100822.28;;;21.93;100.00
73063;BME280;61230;46.328;19.972;2023-06-22T04:37:58;100821.25;;;22.00;100.00
73063;BME280;61230;46.328;19.972;2023-06-22T04:40:26;100829.69;;;21.97;100.00
73063;BME280;61230;46.328;19.972;2023-06-22T04:42:54;100819.19;;;22.02;100.00
73063;BME280;61230;46.328;19.972;2023-06-22T04:45:22;100821.69;;;22.10;100.00
73063;BME280;61230;46.328;19.972;2023-06-22T04:47:49;100819.19;;;22.22;100.00
73063;BME280;61230;46.328;19.972;2023-06-22T04:50:17;100817.13;;;22.37;100.00
73063;BME280;61230;46.328;19.972;2023-06-22T04:52:48;100812.56;;;22.51;100.00
73063;BME280;61230;46.328;19.972;2023-06-22T04:55:15;100783.09;;;22.38;99.52
73063;BME280;61230;46.328;19.972;2023-06-22T04:57:46;100816.09;;;22.64;98.42
73063;BME280;61230;46.328;19.972;2023-06-22T05:00:18;100807.41;;;22.56;98.49
73063;BME280;61230;46.328;19.972;2023-06-22T05:02:46;100811.94;;;22.75;97.98
73063;BME280;61230;46.328;19.972;2023-06-22T05:05:15;100814.62;;;22.81;97.39
73063;BME280;61230;46.328;19.972;2023-06-22T05:07:45;100817.66;;;22.92;97.06
73063;BME280;61230;46.328;19.972;2023-06-22T05:10:15;100815.16;;;23.03;96.70
73063;BME280;61230;46.328;19.972;2023-06-22T05:12:42;100810.56;;;23.10;96.47
73063;BME280;61230;46.328;19.972;2023-06-22T05:15:10;100770.75;;;23.01;95.62
73063;BME280;61230;46.328;19.972;2023-06-22T05:17:38;100806.34;;;23.27;95.72
73063;BME280;61230;46.328;19.972;2023-06-22T05:20:12;100805.56;;;23.27;95.07
73063;BME280;61230;46.328;19.972;2023-06-22T05:22:40;100807.38;;;23.39;94.73
73063;BME280;61230;46.328;19.972;2023-06-22T05:25:09;100810.00;;;23.53;94.07
73063;BME280;61230;46.328;19.972;2023-06-22T05:27:37;100795.25;;;23.62;93.82
73063;BME280;61230;46.328;19.972;2023-06-22T05:30:07;100805.22;;;23.86;92.68
73063;BME280;61230;46.328;19.972;2023-06-22T05:32:36;100806.81;;;23.93;91.08
73063;BME280;61230;46.328;19.972;2023-06-22T05:35:04;100780.53;;;23.71;89.54
73063;BME280;61230;46.328;19.972;2023-06-22T05:37:33;100823.66;;;24.14;89.14
73063;BME280;61230;46.328;19.972;2023-06-22T05:40:01;100821.59;;;24.09;88.22
73063;BME280;61230;46.328;19.972;2023-06-22T05:42:29;100786.91;;;24.01;87.70
73063;BME280;61230;46.328;19.972;2023-06-22T05:44:56;100836.34;;;24.31;86.84
73063;BME280;61230;46.328;19.972;2023-06-22T05:47:26;100834.69;;;24.30;86.24
73063;BME280;61230;46.328;19.972;2023-06-22T05:49:53;100827.28;;;24.26;86.54
73063;BME280;61230;46.328;19.972;2023-06-22T05:52:21;100831.41;;;24.28;86.77
73063;BME280;61230;46.328;19.972;2023-06-22T05:54:48;100832.78;;;24.37;86.80
73063;BME280;61230;46.328;19.972;2023-06-22T05:57:16;100822.16;;;24.42;87.23
73063;BME280;61230;46.328;19.972;2023-06-22T05:59:44;100821.50;;;24.47;87.44
73063;BME280;61230;46.328;19.972;2023-06-22T06:02:11;100842.38;;;24.51;87.78
73063;BME280;61230;46.328;19.972;2023-06-22T06:04:39;100807.03;;;24.23;86.83
73063;BME280;61230;46.328;19.972;2023-06-22T06:07:07;100805.22;;;24.17;87.25
73063;BME280;61230;46.328;19.972;2023-06-22T06:09:34;100843.31;;;24.39;87.44
73063;BME280;61230;46.328;19.972;2023-06-22T06:12:03;100835.66;;;24.36;87.42
73063;BME280;61230;46.328;19.972;2023-06-22T06:14:30;100830.28;;;24.36;87.31
73063;BME280;61230;46.328;19.972;2023-06-22T06:16:58;100837.63;;;24.47;87.28
73063;BME280;61230;46.328;19.972;2023-06-22T06:19:26;100804.81;;;24.38;87.01
73063;BME280;61230;46.328;19.972;2023-06-22T06:21:53;100827.31;;;24.69;86.82
73063;BME280;61230;46.328;19.972;2023-06-22T06:24:21;100823.72;;;24.75;87.27
73063;BME280;61230;46.328;19.972;2023-06-22T06:26:48;100823.37;;;24.89;86.51
73063;BME280;61230;46.328;19.972;2023-06-22T06:29:16;100824.13;;;24.96;85.79
73063;BME280;61230;46.328;19.972;2023-06-22T06:31:43;100826.75;;;25.03;85.54
73063;BME280;61230;46.328;19.972;2023-06-22T06:34:11;100826.44;;;25.11;85.06
73063;BME280;61230;46.328;19.972;2023-06-22T06:36:39;100835.78;;;25.27;84.52
73063;BME280;61230;46.328;19.972;2023-06-22T06:39:06;100829.03;;;25.36;84.07
73063;BME280;61230;46.328;19.972;2023-06-22T06:41:34;100842.19;;;25.44;83.88
73063;BME280;61230;46.328;19.972;2023-06-22T06:44:01;100842.84;;;25.57;83.30
73063;BME280;61230;46.328;19.972;2023-06-22T06:46:29;100840.25;;;25.81;82.52
73063;BME280;61230;46.328;19.972;2023-06-22T06:48:57;100856.47;;;25.92;82.20
73063;BME280;61230;46.328;19.972;2023-06-22T06:51:24;100847.34;;;26.05;81.68
73063;BME280;61230;46.328;19.972;2023-06-22T06:53:52;100851.06;;;25.92;80.91
73063;BME280;61230;46.328;19.972;2023-06-22T06:56:20;100848.31;;;26.10;81.16
73063;BME280;61230;46.328;19.972;2023-06-22T06:58:50;100858.78;;;26.18;80.26
73063;BME280;61230;46.328;19.972;2023-06-22T07:01:18;100853.78;;;26.34;80.14
73063;BME280;61230;46.328;19.972;2023-06-22T07:03:49;100858.81;;;26.42;79.82
73063;BME280;61230;46.328;19.972;2023-06-22T07:06:16;100863.03;;;26.38;79.12
73063;BME280;61230;46.328;19.972;2023-06-22T07:08:44;100866.78;;;26.48;78.69
73063;BME280;61230;46.328;19.972;2023-06-22T07:11:12;100860.00;;;26.57;77.71
73063;BME280;61230;46.328;19.972;2023-06-22T07:13:39;100861.66;;;26.81;76.48
73063;BME280;61230;46.328;19.972;2023-06-22T07:16:07;100858.81;;;27.00;75.44
73063;BME280;61230;46.328;19.972;2023-06-22T07:18:35;100855.75;;;27.08;74.73
73063;BME280;61230;46.328;19.972;2023-06-22T07:21:02;100857.00;;;27.28;74.23
73063;BME280;61230;46.328;19.972;2023-06-22T07:23:33;100852.28;;;27.47;72.99
73063;BME280;61230;46.328;19.972;2023-06-22T07:26:01;100854.34;;;27.57;71.39
73063;BME280;61230;46.328;19.972;2023-06-22T07:28:29;100845.62;;;27.83;70.49
73063;BME280;61230;46.328;19.972;2023-06-22T07:31:04;100847.03;;;27.85;70.92
73063;BME280;61230;46.328;19.972;2023-06-22T07:33:32;100849.00;;;27.90;69.91
73063;BME280;61230;46.328;19.972;2023-06-22T07:36:00;100848.28;;;27.94;70.27
73063;BME280;61230;46.328;19.972;2023-06-22T07:38:28;100840.13;;;27.78;71.14
73063;BME280;61230;46.328;19.972;2023-06-22T07:40:56;100836.94;;;27.81;70.41
73063;BME280;61230;46.328;19.972;2023-06-22T07:43:23;100836.13;;;27.80;71.69
73063;BME280;61230;46.328;19.972;2023-06-22T07:45:51;100834.44;;;28.08;70.61
73063;BME280;61230;46.328;19.972;2023-06-22T07:48:20;100802.78;;;28.25;69.82
73063;BME280;61230;46.328;19.972;2023-06-22T07:50:49;100834.75;;;28.61;68.63
73063;BME280;61230;46.328;19.972;2023-06-22T07:53:16;100822.66;;;28.64;69.38
73063;BME280;61230;46.328;19.972;2023-06-22T07:55:44;100825.09;;;28.48;68.25
73063;BME280;61230;46.328;19.972;2023-06-22T07:58:15;100830.34;;;28.55;69.11
73063;BME280;61230;46.328;19.972;2023-06-22T08:00:43;100838.62;;;28.65;68.75
73063;BME280;61230;46.328;19.972;2023-06-22T08:03:11;100837.31;;;28.68;69.12
73063;BME280;61230;46.328;19.972;2023-06-22T08:05:38;100838.56;;;28.10;69.74
73063;BME280;61230;46.328;19.972;2023-06-22T08:08:06;100838.06;;;28.30;70.60
73063;BME280;61230;46.328;19.972;2023-06-22T08:10:34;100842.00;;;28.39;70.72
73063;BME280;61230;46.328;19.972;2023-06-22T08:13:03;100846.44;;;28.45;70.46
73063;BME280;61230;46.328;19.972;2023-06-22T08:15:30;100849.38;;;28.10;72.83
73063;BME280;61230;46.328;19.972;2023-06-22T08:17:59;100851.38;;;28.31;72.04
73063;BME280;61230;46.328;19.972;2023-06-22T08:20:27;100850.37;;;28.37;71.89
73063;BME280;61230;46.328;19.972;2023-06-22T08:22:55;100861.78;;;27.78;74.61
73063;BME280;61230;46.328;19.972;2023-06-22T08:25:23;100855.22;;;27.34;75.82
73063;BME280;61230;46.328;19.972;2023-06-22T08:27:51;100871.44;;;27.46;75.33
73063;BME280;61230;46.328;19.972;2023-06-22T08:30:18;100864.37;;;27.73;74.89
73063;BME280;61230;46.328;19.972;2023-06-22T08:32:46;100869.50;;;27.58;75.71
73063;BME280;61230;46.328;19.972;2023-06-22T08:35:14;100866.75;;;27.69;74.87
73063;BME280;61230;46.328;19.972;2023-06-22T08:37:41;100866.12;;;28.24;73.52
73063;BME280;61230;46.328;19.972;2023-06-22T08:40:09;100849.78;;;27.74;73.21
73063;BME280;61230;46.328;19.972;2023-06-22T08:42:40;100860.69;;;27.79;73.67
73063;BME280;61230;46.328;19.972;2023-06-22T08:45:09;100835.81;;;27.37;74.24
73063;BME280;61230;46.328;19.972;2023-06-22T08:47:38;100857.09;;;27.90;73.49
73063;BME280;61230;46.328;19.972;2023-06-22T08:50:06;100825.47;;;27.90;73.17
73063;BME280;61230;46.328;19.972;2023-06-22T08:52:36;100836.09;;;28.09;72.64
73063;BME280;61230;46.328;19.972;2023-06-22T08:55:05;100847.53;;;27.99;73.18
73063;BME280;61230;46.328;19.972;2023-06-22T08:57:33;100852.34;;;28.09;73.44
73063;BME280;61230;46.328;19.972;2023-06-22T09:00:01;100846.84;;;28.37;71.99
73063;BME280;61230;46.328;19.972;2023-06-22T09:02:29;100844.16;;;28.20;72.54
73063;BME280;61230;46.328;19.972;2023-06-22T09:04:59;100835.84;;;28.27;72.38
73063;BME280;61230;46.328;19.972;2023-06-22T09:07:27;100841.69;;;28.90;70.66
73063;BME280;61230;46.328;19.972;2023-06-22T09:09:55;100841.75;;;29.34;68.52
73063;BME280;61230;46.328;19.972;2023-06-22T09:12:23;100838.13;;;29.50;67.57
73063;BME280;61230;46.328;19.972;2023-06-22T09:14:54;100823.78;;;29.28;67.99
73063;BME280;61230;46.328;19.972;2023-06-22T09:17:22;100832.22;;;29.58;66.58
73063;BME280;61230;46.328;19.972;2023-06-22T09:19:50;100825.06;;;30.00;65.86
73063;BME280;61230;46.328;19.972;2023-06-22T09:22:18;100830.00;;;30.08;64.25
73063;BME280;61230;46.328;19.972;2023-06-22T09:24:46;100827.22;;;29.98;63.92
73063;BME280;61230;46.328;19.972;2023-06-22T09:27:13;100835.91;;;30.32;62.96
73063;BME280;61230;46.328;19.972;2023-06-22T09:29:41;100822.22;;;30.54;62.15
73063;BME280;61230;46.328;19.972;2023-06-22T09:32:09;100818.00;;;30.73;61.93
73063;BME280;61230;46.328;19.972;2023-06-22T09:34:37;100786.84;;;30.39;60.46
73063;BME280;61230;46.328;19.972;2023-06-22T09:37:05;100820.66;;;30.63;60.81
73063;BME280;61230;46.328;19.972;2023-06-22T09:39:32;100788.88;;;30.63;60.56
73063;BME280;61230;46.328;19.972;2023-06-22T09:42:00;100817.97;;;31.25;59.73
73063;BME280;61230;46.328;19.972;2023-06-22T09:44:28;100812.34;;;31.42;59.31
73063;BME280;61230;46.328;19.972;2023-06-22T09:46:55;100819.66;;;31.36;59.15
73063;BME280;61230;46.328;19.972;2023-06-22T09:49:24;100816.22;;;31.61;58.08
73063;BME280;61230;46.328;19.972;2023-06-22T09:52:11;100816.72;;;31.48;57.84
73063;BME280;61230;46.328;19.972;2023-06-22T09:54:39;100807.50;;;31.59;58.28
73063;BME280;61230;46.328;19.972;2023-06-22T09:57:06;100806.41;;;31.85;57.53
73063;BME280;61230;46.328;19.972;2023-06-22T09:59:34;100802.59;;;31.96;57.03
73063;BME280;61230;46.328;19.972;2023-06-22T10:02:02;100796.34;;;31.91;56.68
73063;BME280;61230;46.328;19.972;2023-06-22T10:04:30;100796.63;;;31.79;56.84
73063;BME280;61230;46.328;19.972;2023-06-22T10:06:57;100763.91;;;31.44;56.76
73063;BME280;61230;46.328;19.972;2023-06-22T10:09:25;100786.03;;;32.08;56.32
73063;BME280;61230;46.328;19.972;2023-06-22T10:11:53;100767.25;;;32.01;55.81
73063;BME280;61230;46.328;19.972;2023-06-22T10:14:21;100786.25;;;32.57;53.99
73063;BME280;61230;46.328;19.972;2023-06-22T10:16:49;100781.88;;;32.51;53.99
73063;BME280;61230;46.328;19.972;2023-06-22T10:19:18;100786.25;;;32.52;53.84
73063;BME280;61230;46.328;19.972;2023-06-22T10:21:46;100784.84;;;32.69;54.09
73063;BME280;61230;46.328;19.972;2023-06-22T10:24:15;100788.34;;;32.85;53.20
73063;BME280;61230;46.328;19.972;2023-06-22T10:26:43;100773.56;;;33.06;52.36
73063;BME280;61230;46.328;19.972;2023-06-22T10:29:10;100748.56;;;32.74;52.33
73063;BME280;61230;46.328;19.972;2023-06-22T10:31:44;100776.00;;;33.03;51.91
73063;BME280;61230;46.328;19.972;2023-06-22T10:34:11;100778.66;;;33.23;51.66
73063;BME280;61230;46.328;19.972;2023-06-22T10:36:39;100776.53;;;33.59;51.18
73063;BME280;61230;46.328;19.972;2023-06-22T10:39:07;100741.84;;;33.15;51.70
73063;BME280;61230;46.328;19.972;2023-06-22T10:41:35;100766.44;;;33.05;51.39
73063;BME280;61230;46.328;19.972;2023-06-22T10:44:03;100775.47;;;32.95;51.11
73063;BME280;61230;46.328;19.972;2023-06-22T10:46:31;100769.97;;;33.54;50.81
73063;BME280;61230;46.328;19.972;2023-06-22T10:48:58;100761.50;;;33.12;51.21
73063;BME280;61230;46.328;19.972;2023-06-22T10:51:26;100774.66;;;33.49;50.60
73063;BME280;61230;46.328;19.972;2023-06-22T10:53:55;100772.50;;;33.46;50.98
73063;BME280;61230;46.328;19.972;2023-06-22T10:56:23;100763.53;;;33.40;50.16
73063;BME280;61230;46.328;19.972;2023-06-22T10:58:51;100767.59;;;33.43;50.08
73063;BME280;61230;46.328;19.972;2023-06-22T11:01:20;100768.66;;;33.86;49.70
73063;BME280;61230;46.328;19.972;2023-06-22T11:04:03;100756.88;;;33.90;49.43
73063;BME280;61230;46.328;19.972;2023-06-22T11:06:32;100757.50;;;33.82;49.68
73063;BME280;61230;46.328;19.972;2023-06-22T11:08:59;100764.97;;;33.72;49.33
73063;BME280;61230;46.328;19.972;2023-06-22T11:11:30;100763.28;;;33.76;48.95
73063;BME280;61230;46.328;19.972;2023-06-22T11:13:57;100729.06;;;33.49;48.84
73063;BME280;61230;46.328;19.972;2023-06-22T11:16:25;100750.97;;;34.07;48.65
73063;BME280;61230;46.328;19.972;2023-06-22T11:18:53;100723.59;;;33.83;49.52
73063;BME280;61230;46.328;19.972;2023-06-22T11:21:20;100750.38;;;34.15;48.63
73063;BME280;61230;46.328;19.972;2023-06-22T11:23:48;100742.56;;;34.56;48.33
73063;BME280;61230;46.328;19.972;2023-06-22T11:26:16;100748.38;;;34.49;48.91
73063;BME280;61230;46.328;19.972;2023-06-22T11:28:44;100741.28;;;34.48;49.09
73063;BME280;61230;46.328;19.972;2023-06-22T11:31:11;100737.19;;;34.46;48.00
73063;BME280;61230;46.328;19.972;2023-06-22T11:33:41;100724.59;;;34.50;47.79
73063;BME280;61230;46.328;19.972;2023-06-22T11:36:09;100698.44;;;33.91;48.68
73063;BME280;61230;46.328;19.972;2023-06-22T11:38:38;100728.53;;;34.39;47.95
73063;BME280;61230;46.328;19.972;2023-06-22T11:41:07;100721.53;;;34.51;47.71
73063;BME280;61230;46.328;19.972;2023-06-22T11:43:35;100727.22;;;34.60;47.71
73063;BME280;61230;46.328;19.972;2023-06-22T11:46:04;100717.47;;;34.96;47.34
73063;BME280;61230;46.328;19.972;2023-06-22T11:48:32;100718.75;;;34.80;46.93
73063;BME280;61230;46.328;19.972;2023-06-22T11:51:00;100720.16;;;34.78;47.39
73063;BME280;61230;46.328;19.972;2023-06-22T11:53:30;100723.38;;;34.85;46.96
73063;BME280;61230;46.328;19.972;2023-06-22T11:55:57;100718.66;;;35.09;46.54
73063;BME280;61230;46.328;19.972;2023-06-22T11:58:25;100721.06;;;34.92;46.99
73063;BME280;61230;46.328;19.972;2023-06-22T12:00:53;100726.09;;;35.03;46.27
73063;BME280;61230;46.328;19.972;2023-06-22T12:03:22;100713.31;;;34.56;47.52
73063;BME280;61230;46.328;19.972;2023-06-22T12:05:50;100716.62;;;34.53;47.61
73063;BME280;61230;46.328;19.972;2023-06-22T12:08:20;100684.31;;;34.55;48.04
73063;BME280;61230;46.328;19.972;2023-06-22T12:10:49;100706.47;;;34.78;46.63
73063;BME280;61230;46.328;19.972;2023-06-22T12:13:17;100709.28;;;34.73;46.65
73063;BME280;61230;46.328;19.972;2023-06-22T12:15:45;100705.78;;;34.43;46.82
73063;BME280;61230;46.328;19.972;2023-06-22T12:18:13;100690.78;;;34.41;48.18
73063;BME280;61230;46.328;19.972;2023-06-22T12:20:42;100696.66;;;34.77;47.62
73063;BME280;61230;46.328;19.972;2023-06-22T12:23:10;100694.37;;;35.02;45.96
73063;BME280;61230;46.328;19.972;2023-06-22T12:25:38;100688.16;;;34.54;46.97
73063;BME280;61230;46.328;19.972;2023-06-22T12:28:05;100693.66;;;34.02;48.16
73063;BME280;61230;46.328;19.972;2023-06-22T12:54:18;100675.47;;;33.92;49.40
73063;BME280;61230;46.328;19.972;2023-06-22T12:56:47;100648.59;;;34.28;47.63
73063;BME280;61230;46.328;19.972;2023-06-22T12:59:14;100652.06;;;34.57;47.72
73063;BME280;61230;46.328;19.972;2023-06-22T13:01:41;100652.62;;;34.54;47.38
73063;BME280;61230;46.328;19.972;2023-06-22T13:04:12;100658.88;;;34.60;47.21
73063;BME280;61230;46.328;19.972;2023-06-22T13:06:42;100652.59;;;34.78;47.82
73063;BME280;61230;46.328;19.972;2023-06-22T13:09:10;100646.38;;;34.91;47.01
73063;BME280;61230;46.328;19.972;2023-06-22T13:11:42;100659.31;;;34.86;47.20